Atlas, Illinois
Current Conditions -  °F | °C
As of 6:55 PM on Saturday 25 Oct 2014 (Local Time) from KPPQ Reporting Station
Clear Clear  
Wind Chill: 69°   Ceiling: Unl
Heat Index: 69°   Visibility: 10mi
Dew Point: 46°   Wind: 3mph
Humidity: 45%   Direction: 300°WNW
Pressure: 30.03"   Gusts: NA
Location:  39.5365°N, 91.0118°W
Report Text: KPPQ 252355Z AUTO 30003KT 10SM CLR 20/08 A3003 RMK AO2 T02030079 10268 20200
Loading
Personal Weather Stations






























Interactive Weather Map
Tropical Storm Tracking
New forecast layout! Learn more

10-Day Weather Forecast

Advertisements
Track Severe Weather on mobile